Time;durP1;ratioP1;P1;durP2;ratioP2;P2;SDS_P1;SDS_P2;PMS_P1;PMS_P2;Temp;Humidity;BMP_temperature;BMP_pressure;BME280_temperature;BME280_humidity;BME280_pressure;Samples;Min_cycle;Max_cycle;Signal;HPM_P1;HPM_P2
2023/10/03 00:00:52;;;;;;;15.85;7.50;;;;;;;23.46;55.76;101067.53;5002109;28;20058;-37
2023/10/03 00:03:19;;;;;;;16.27;8.05;;;;;;;23.45;55.74;101063.16;5002502;28;20112;-37
2023/10/03 00:05:48;;;;;;;16.15;8.43;;;;;;;23.45;55.62;101057.75;5003873;28;20112;-37
2023/10/03 00:08:15;;;;;;;16.17;8.23;;;;;;;23.45;55.64;101044.22;5003890;28;20049;-37
2023/10/03 00:10:41;;;;;;;16.40;8.20;;;;;;;23.44;55.10;101034.41;4999192;28;20050;-37
2023/10/03 00:13:08;;;;;;;18.13;9.40;;;;;;;23.44;55.28;101029.88;4999008;28;20045;-37
2023/10/03 00:15:39;;;;;;;17.00;8.48;;;;;;;23.43;55.43;101019.19;5006430;28;20049;-37
2023/10/03 00:18:06;;;;;;;18.08;9.48;;;;;;;23.43;55.65;101014.63;5005632;28;20050;-37
2023/10/03 00:20:32;;;;;;;15.55;8.07;;;;;;;23.42;55.13;101009.41;5003757;28;20449;-37
2023/10/03 00:22:59;;;;;;;17.85;9.02;;;;;;;23.41;55.32;101005.88;4996496;28;20046;-37
2023/10/03 00:25:26;;;;;;;17.73;9.32;;;;;;;23.40;55.05;101010.44;5003362;28;20054;-37
2023/10/03 00:27:56;;;;;;;19.15;8.88;;;;;;;23.39;55.71;101005.22;5002693;28;20471;-37
2023/10/03 00:30:24;;;;;;;16.65;8.77;;;;;;;23.39;55.64;101006.03;5000968;28;20050;-37
2023/10/03 00:32:52;;;;;;;18.20;8.70;;;;;;;23.39;55.18;100997.09;4999307;28;20049;-37
2023/10/03 00:35:22;;;;;;;18.20;9.15;;;;;;;23.38;55.22;100992.72;4998383;28;20129;-37
2023/10/03 00:37:52;;;;;;;17.67;9.38;;;;;;;23.38;55.61;100981.91;4999519;28;20589;-37
2023/10/03 00:42:52;;;;;;;16.67;8.85;;;;;;;23.36;55.08;100989.38;4994507;28;20085;-37
2023/10/03 00:45:22;;;;;;;17.33;8.70;;;;;;;23.36;55.36;100975.84;4997739;28;20140;-37
2023/10/03 00:47:48;;;;;;;20.10;10.20;;;;;;;23.35;55.49;100974.16;4999305;28;20391;-37
2023/10/03 00:50:19;;;;;;;17.77;9.05;;;;;;;23.35;55.37;100976.84;5004727;28;20046;-37
2023/10/03 00:52:55;;;;;;;20.77;10.00;;;;;;;23.33;55.80;100966.22;5000650;28;20141;-37
2023/10/03 00:55:29;;;;;;;19.75;9.73;;;;;;;23.32;55.28;100969.13;4997485;28;20358;-37
2023/10/03 01:00:41;;;;;;;20.88;9.85;;;;;;;23.31;55.71;100953.91;4998887;28;20049;-37
2023/10/03 01:03:27;;;;;;;17.02;8.60;;;;;;;23.31;55.73;100953.91;5000469;28;20046;-37
2023/10/03 01:05:58;;;;;;;18.67;9.60;;;;;;;23.30;55.70;100944.97;4998686;28;20133;-37
2023/10/03 01:08:25;;;;;;;20.63;10.63;;;;;;;23.31;55.88;100927.69;5001057;28;20117;-37
2023/10/03 01:10:54;;;;;;;20.25;10.00;;;;;;;23.30;55.39;100933.31;4998321;28;20053;-37
2023/10/03 01:13:24;;;;;;;18.55;9.68;;;;;;;23.30;55.36;100925.19;5003151;28;20061;-37
2023/10/03 01:15:55;;;;;;;21.30;10.40;;;;;;;23.28;55.25;100925.38;4998838;28;20485;-37
2023/10/03 01:18:22;;;;;;;19.77;9.23;;;;;;;23.28;55.87;100913.72;4998665;28;20089;-37
2023/10/03 01:20:50;;;;;;;19.30;9.55;;;;;;;23.28;55.30;100908.31;5001604;28;20081;-37
2023/10/03 01:23:19;;;;;;;20.52;9.80;;;;;;;23.26;55.58;100892.25;4997050;28;20154;-37
2023/10/03 01:25:46;;;;;;;21.45;10.57;;;;;;;23.26;55.82;100910.34;5001258;28;20397;-37
2023/10/03 01:28:13;;;;;;;20.08;9.57;;;;;;;23.25;55.75;100896.00;4996909;28;20125;-37
2023/10/03 01:30:41;;;;;;;19.52;9.60;;;;;;;23.24;55.48;100877.28;5001139;28;20056;-37
2023/10/03 01:33:09;;;;;;;21.70;9.82;;;;;;;23.24;55.28;100882.69;5001347;28;20437;-37
2023/10/03 01:35:37;;;;;;;21.08;10.27;;;;;;;23.23;55.85;100867.47;4998590;28;20046;-37
2023/10/03 01:38:07;;;;;;;22.50;10.77;;;;;;;23.22;55.11;100880.13;5002746;28;20048;-37
2023/10/03 01:40:34;;;;;;;19.90;9.88;;;;;;;23.22;55.51;100873.91;4996642;28;20129;-38
2023/10/03 01:43:01;;;;;;;20.48;10.02;;;;;;;23.21;55.56;100888.44;5000427;28;20093;-37
2023/10/03 01:45:32;;;;;;;20.95;9.77;;;;;;;23.20;55.54;100871.38;4995934;28;20058;-37
2023/10/03 01:47:59;;;;;;;19.90;10.13;;;;;;;23.20;55.05;100884.91;4998643;28;20045;-37
2023/10/03 01:50:29;;;;;;;19.70;9.95;;;;;;;23.20;55.39;100871.38;4998157;28;20551;-37
2023/10/03 01:52:57;;;;;;;20.05;10.38;;;;;;;23.18;55.30;100865.31;5002004;28;20050;-37
2023/10/03 01:55:24;;;;;;;20.08;10.30;;;;;;;23.17;55.50;100866.34;5001975;28;20129;-37
2023/10/03 01:57:51;;;;;;;22.27;10.40;;;;;;;23.17;55.45;100865.53;5004565;28;20129;-37
2023/10/03 02:03:07;;;;;;;21.27;11.15;;;;;;;23.15;55.40;100869.22;4999407;28;20120;-37
2023/10/03 02:05:38;;;;;;;23.25;11.05;;;;;;;23.15;55.64;100866.53;4998444;28;20069;-37
2023/10/03 02:08:15;;;;;;;22.70;10.85;;;;;;;23.13;55.68;100868.59;5001426;28;20045;-37
2023/10/03 02:10:50;;;;;;;24.20;11.10;;;;;;;23.14;55.38;100872.13;4992973;28;20054;-37
2023/10/03 02:13:19;;;;;;;23.73;10.90;;;;;;;23.14;55.85;100866.72;4996910;28;20488;-37
2023/10/03 02:15:47;;;;;;;24.25;10.65;;;;;;;23.14;55.71;100854.03;5001207;28;20097;-37
2023/10/03 02:18:17;;;;;;;24.08;11.35;;;;;;;23.12;55.56;100848.00;4997224;28;20088;-37
2023/10/03 02:20:50;;;;;;;22.17;11.00;;;;;;;23.12;55.26;100817.41;4999316;28;20060;-37
2023/10/03 02:23:19;;;;;;;23.02;10.43;;;;;;;23.13;55.54;100838.00;5001133;28;20084;-37
2023/10/03 02:25:48;;;;;;;24.52;10.63;;;;;;;23.12;55.60;100831.75;5003232;28;20456;-37
2023/10/03 02:28:16;;;;;;;23.65;10.73;;;;;;;23.11;55.39;100830.06;4999879;28;20518;-37
2023/10/03 02:30:48;;;;;;;23.45;10.98;;;;;;;23.11;55.76;100838.19;4999964;28;20120;-37
2023/10/03 02:33:16;;;;;;;24.10;11.38;;;;;;;23.12;55.75;100830.94;4998495;28;20390;-37
2023/10/03 02:35:48;;;;;;;26.05;12.27;;;;;;;23.11;55.69;100835.47;4998212;28;20104;-37
2023/10/03 02:38:24;;;;;;;23.83;11.27;;;;;;;23.11;55.53;100826.53;4999473;28;20046;-37
2023/10/03 02:40:57;;;;;;;25.10;11.48;;;;;;;23.11;55.52;100830.06;4996361;28;20057;-37
2023/10/03 02:43:26;;;;;;;24.58;11.00;;;;;;;23.11;55.71;100821.13;4996493;28;20061;-38
2023/10/03 02:45:52;;;;;;;25.92;11.02;;;;;;;23.09;55.58;100815.91;5000917;28;20080;-37
2023/10/03 02:48:21;;;;;;;23.25;10.70;;;;;;;23.10;55.50;100812.19;4997531;28;20050;-37
2023/10/03 02:50:50;;;;;;;23.50;11.43;;;;;;;23.11;55.23;100802.19;4998427;28;20060;-37
2023/10/03 02:53:19;;;;;;;27.15;12.52;;;;;;;23.11;55.28;100804.91;5000109;28;20096;-37
2023/10/03 02:55:51;;;;;;;24.35;11.40;;;;;;;23.11;55.23;100807.59;5002633;28;20049;-37
2023/10/03 02:58:20;;;;;;;26.00;12.15;;;;;;;23.11;55.23;100807.59;5000640;28;20112;-37
2023/10/03 03:00:53;;;;;;;27.35;12.35;;;;;;;23.10;55.16;100812.19;4996287;28;20092;-37
2023/10/03 03:03:29;;;;;;;23.35;11.15;;;;;;;23.10;55.79;100809.47;5004052;28;20057;-37
2023/10/03 03:05:59;;;;;;;27.15;11.75;;;;;;;23.09;55.13;100799.69;5000645;28;20058;-37
2023/10/03 03:08:28;;;;;;;28.17;12.25;;;;;;;23.09;55.19;100815.91;4999912;28;20046;-37
2023/10/03 03:10:59;;;;;;;27.10;11.52;;;;;;;23.10;55.11;100811.34;4996298;28;20062;-37
2023/10/03 03:13:34;;;;;;;24.00;11.15;;;;;;;23.09;55.69;100820.50;4998031;28;20053;-37
2023/10/03 03:16:05;;;;;;;23.80;12.38;;;;;;;23.09;55.19;100810.50;4999363;28;20089;-37
2023/10/03 03:18:42;;;;;;;21.83;11.07;;;;;;;23.09;55.23;100815.91;5002857;28;20039;-37
2023/10/03 03:21:16;;;;;;;23.92;10.88;;;;;;;23.10;55.52;100812.19;5002671;28;20357;-37
2023/10/03 03:23:56;;;;;;;22.95;11.30;;;;;;;23.09;55.51;100818.63;5000352;28;20050;-37
2023/10/03 03:26:36;;;;;;;23.33;11.07;;;;;;;23.10;55.23;100820.28;5003789;28;20361;-37
2023/10/03 03:29:22;;;;;;;23.70;11.30;;;;;;;23.11;55.64;100821.13;5006150;28;20393;-37
2023/10/03 03:31:50;;;;;;;22.17;10.38;;;;;;;23.11;55.63;100829.22;5002848;28;20057;-37
2023/10/03 03:34:18;;;;;;;23.77;11.30;;;;;;;23.11;55.18;100826.53;4998898;28;20050;-37
2023/10/03 03:36:46;;;;;;;23.08;10.15;;;;;;;23.11;55.61;100821.13;5018838;28;20050;-37
2023/10/03 03:39:20;;;;;;;21.90;10.35;;;;;;;23.12;55.36;100820.13;5000097;28;20042;-37
2023/10/03 03:41:48;;;;;;;26.88;11.00;;;;;;;23.11;55.56;100830.06;5003688;28;20446;-38
2023/10/03 03:44:18;;;;;;;22.40;10.77;;;;;;;23.11;55.33;100840.88;5002699;28;20062;-38
2023/10/03 03:46:45;;;;;;;27.50;11.43;;;;;;;23.12;55.19;100837.19;5003568;28;20149;-37
2023/10/03 03:49:14;;;;;;;25.80;11.50;;;;;;;23.12;55.56;100839.88;5002373;28;20053;-37
2023/10/03 03:51:41;;;;;;;24.17;10.73;;;;;;;23.12;55.63;100850.69;4999881;28;20686;-37
2023/10/03 03:54:12;;;;;;;23.08;11.00;;;;;;;23.12;55.56;100864.22;4999896;28;20050;-37
2023/10/03 03:56:40;;;;;;;22.42;10.27;;;;;;;23.13;55.95;100859.63;5003961;28;20050;-37
2023/10/03 03:59:08;;;;;;;21.88;10.50;;;;;;;23.13;55.80;100862.34;5007975;28;20434;-37
2023/10/03 04:01:35;;;;;;;21.67;10.75;;;;;;;23.13;55.65;100862.34;5002470;28;20437;-37
2023/10/03 04:04:03;;;;;;;22.05;10.07;;;;;;;23.12;56.02;100869.63;5002758;28;20072;-37
2023/10/03 04:06:31;;;;;;;20.90;10.35;;;;;;;23.11;55.92;100862.50;4998178;28;20658;-37
2023/10/03 04:08:59;;;;;;;22.73;10.35;;;;;;;23.13;55.92;100867.75;5000632;28;20453;-37
2023/10/03 04:11:38;;;;;;;23.67;10.32;;;;;;;23.11;55.84;100867.91;5002881;28;20077;-37
2023/10/03 04:14:05;;;;;;;19.50;9.65;;;;;;;23.11;56.01;100854.41;5000568;28;20165;-37
2023/10/03 04:16:43;;;;;;;20.80;10.27;;;;;;;23.10;56.21;100860.84;4998741;28;20493;-37
2023/10/03 04:19:11;;;;;;;20.98;9.95;;;;;;;23.10;55.83;100860.00;5004721;28;20065;-37
2023/10/03 04:21:40;;;;;;;19.40;9.73;;;;;;;23.09;56.14;100859.16;5001781;28;20054;-37
2023/10/03 04:24:10;;;;;;;23.08;10.48;;;;;;;23.10;56.19;100863.53;4997683;28;20054;-37
2023/10/03 04:26:39;;;;;;;25.02;10.25;;;;;;;23.10;56.31;100860.84;5002783;28;20160;-37
2023/10/03 04:29:11;;;;;;;22.48;9.65;;;;;;;23.09;55.88;100861.88;5010502;28;20038;-37
2023/10/03 04:31:37;;;;;;;22.95;10.00;;;;;;;23.09;55.92;100869.97;5009089;28;20503;-37
2023/10/03 04:34:04;;;;;;;22.80;9.25;;;;;;;23.08;56.09;100879.13;5007446;28;20050;-37
2023/10/03 04:36:32;;;;;;;21.48;9.27;;;;;;;23.08;56.00;100881.84;4998465;28;20133;-37
2023/10/03 04:38:58;;;;;;;19.77;9.50;;;;;;;23.08;56.47;100876.44;5002295;28;20103;-37
2023/10/03 04:41:28;;;;;;;22.65;9.73;;;;;;;23.08;56.39;100868.31;5003323;28;20449;-37
2023/10/03 04:43:55;;;;;;;23.73;10.05;;;;;;;23.07;55.97;100863.91;5002518;28;20054;-37
2023/10/03 04:46:22;;;;;;;19.90;8.85;;;;;;;23.07;55.90;100877.44;5002389;28;20058;-37
2023/10/03 04:48:50;;;;;;;24.95;8.93;;;;;;;23.07;56.07;100877.44;5000374;28;20395;-37
2023/10/03 04:51:17;;;;;;;18.33;8.48;;;;;;;23.07;56.06;100885.53;5003758;28;20073;-37
2023/10/03 04:53:44;;;;;;;20.05;9.18;;;;;;;23.07;56.38;100876.59;5004054;28;20088;-37
2023/10/03 04:56:11;;;;;;;18.15;8.48;;;;;;;23.06;56.07;100873.06;5002595;28;20126;-37
2023/10/03 04:58:38;;;;;;;19.45;9.00;;;;;;;23.06;56.72;100872.22;5003689;28;20049;-37
2023/10/03 05:01:05;;;;;;;19.25;9.05;;;;;;;23.05;56.66;100873.25;5006433;28;20046;-37
2023/10/03 05:03:32;;;;;;;17.65;8.07;;;;;;;23.05;55.99;100865.16;5003445;28;20050;-36
2023/10/03 05:06:01;;;;;;;14.93;7.90;;;;;;;23.04;55.94;100877.81;5002314;28;20104;-37
2023/10/03 05:08:28;;;;;;;16.05;7.05;;;;;;;23.04;56.37;100871.59;5003031;28;20054;-37
2023/10/03 05:10:54;;;;;;;18.42;7.78;;;;;;;23.04;55.89;100885.94;5001310;28;20056;-36
2023/10/03 05:13:21;;;;;;;14.88;7.68;;;;;;;23.04;56.14;100891.34;5001624;28;20093;-36
2023/10/03 05:15:48;;;;;;;15.63;6.95;;;;;;;23.04;56.68;100896.75;4997158;28;20070;-37
2023/10/03 05:18:15;;;;;;;17.35;7.63;;;;;;;23.03;56.43;100896.91;5003478;28;20056;-37
2023/10/03 05:20:42;;;;;;;15.48;7.57;;;;;;;23.02;56.35;100890.66;4999382;28;20057;-36
2023/10/03 05:23:09;;;;;;;16.15;7.35;;;;;;;23.03;56.44;100911.28;4996284;28;20107;-36
2023/10/03 05:25:42;;;;;;;16.35;7.30;;;;;;;23.04;56.39;100904.03;5000429;28;20082;-37
2023/10/03 05:28:12;;;;;;;19.02;7.78;;;;;;;23.03;56.06;100897.75;5000876;28;20042;-36
2023/10/03 05:30:40;;;;;;;13.50;6.60;;;;;;;23.02;56.16;100898.78;4999055;28;20049;-37
2023/10/03 05:33:07;;;;;;;15.85;7.00;;;;;;;23.01;55.95;100901.69;4997482;28;20042;-36
2023/10/03 05:35:35;;;;;;;15.45;7.20;;;;;;;23.01;56.39;100899.81;5005307;28;20397;-37
2023/10/03 05:38:08;;;;;;;14.57;6.93;;;;;;;23.01;56.09;100904.38;5002841;28;20112;-36
2023/10/03 05:40:36;;;;;;;13.55;6.45;;;;;;;23.02;56.03;100897.94;4998694;28;20332;-37
2023/10/03 05:43:05;;;;;;;13.38;6.88;;;;;;;23.01;55.90;100896.28;4999871;28;20133;-37
2023/10/03 05:45:36;;;;;;;13.80;6.22;;;;;;;23.00;56.57;100892.75;5000322;28;20050;-37
2023/10/03 05:48:04;;;;;;;13.52;6.32;;;;;;;23.00;56.02;100903.56;5000858;28;20050;-36
2023/10/03 05:50:32;;;;;;;14.05;6.32;;;;;;;22.99;56.43;100915.38;4998823;28;20058;-37
2023/10/03 05:53:00;;;;;;;13.55;6.10;;;;;;;22.99;56.58;100907.25;5001718;28;20477;-37
2023/10/03 05:55:26;;;;;;;12.98;5.97;;;;;;;23.00;56.42;100924.34;5000412;28;20054;-37
2023/10/03 05:57:53;;;;;;;15.02;6.13;;;;;;;22.99;55.77;100928.88;5002068;28;20046;-36
2023/10/03 06:00:21;;;;;;;16.73;6.50;;;;;;;22.99;56.38;100928.88;4998951;28;20053;-37
2023/10/03 06:02:48;;;;;;;15.15;6.18;;;;;;;22.99;56.43;100930.75;5000545;28;20057;-36
2023/10/03 06:05:16;;;;;;;10.82;5.47;;;;;;;22.99;56.13;100934.28;5002560;28;20139;-37
2023/10/03 06:07:44;;;;;;;13.07;5.65;;;;;;;22.99;55.98;100936.16;4999498;28;20054;-37
2023/10/03 06:10:13;;;;;;;13.63;5.55;;;;;;;22.98;55.91;100938.03;4995425;28;20050;-37
2023/10/03 06:12:40;;;;;;;13.15;6.35;;;;;;;22.98;56.31;100938.03;4992878;28;20057;-37
2023/10/03 06:15:08;;;;;;;11.48;6.07;;;;;;;22.97;56.53;100957.97;4994102;28;20058;-37
2023/10/03 06:17:35;;;;;;;10.68;5.38;;;;;;;22.98;55.96;100965.06;4996443;28;20081;-37
2023/10/03 06:20:03;;;;;;;10.57;5.65;;;;;;;22.98;56.45;100970.47;4999084;28;20046;-37
2023/10/03 06:22:32;;;;;;;12.98;5.45;;;;;;;22.97;56.14;100957.97;4995475;28;20046;-37
2023/10/03 06:25:00;;;;;;;9.68;4.85;;;;;;;23.00;55.98;100962.19;5001783;28;20081;-36
2023/10/03 06:27:30;;;;;;;11.23;5.28;;;;;;;22.99;56.16;100971.28;5004122;28;20603;-36
2023/10/03 06:29:57;;;;;;;9.57;4.90;;;;;;;22.98;56.04;100978.56;4995855;28;20045;-37
2023/10/03 06:32:24;;;;;;;10.27;5.38;;;;;;;22.99;55.77;100988.34;4998213;28;20060;-37
2023/10/03 06:34:50;;;;;;;10.82;5.05;;;;;;;23.00;56.77;100989.22;4991296;28;20058;-37
2023/10/03 06:37:17;;;;;;;8.60;5.15;;;;;;;23.00;56.35;101000.88;4992680;28;20046;-37
2023/10/03 06:39:43;;;;;;;11.60;4.85;;;;;;;22.99;56.06;101001.88;4994397;28;20109;-36
2023/10/03 06:42:10;;;;;;;9.82;4.32;;;;;;;23.00;56.43;101000.03;5003492;28;20050;-37
2023/10/03 06:44:37;;;;;;;10.57;5.13;;;;;;;22.99;56.25;101004.56;5002455;28;20101;-37
2023/10/03 06:47:04;;;;;;;8.75;4.68;;;;;;;23.00;55.96;101011.69;4996731;28;20080;-37
2023/10/03 06:49:31;;;;;;;11.57;4.53;;;;;;;22.99;56.11;101009.16;4995449;28;20047;-37
2023/10/03 06:52:01;;;;;;;10.93;5.10;;;;;;;22.99;56.25;101020.78;4998993;28;20448;-37
2023/10/03 06:54:29;;;;;;;9.10;4.53;;;;;;;22.99;56.07;100998.34;5002201;28;20137;-37
2023/10/03 06:56:56;;;;;;;9.23;4.65;;;;;;;22.98;56.01;101002.91;4997668;28;20104;-37
2023/10/03 06:59:23;;;;;;;10.10;4.25;;;;;;;22.98;56.37;101027.22;4997693;28;20037;-37
2023/10/03 07:01:49;;;;;;;9.57;4.57;;;;;;;22.99;56.46;101039.72;4992808;28;20381;-37
2023/10/03 07:04:16;;;;;;;8.82;4.50;;;;;;;22.97;56.30;101025.56;4995817;28;20457;-37
2023/10/03 07:06:43;;;;;;;9.55;4.32;;;;;;;22.98;56.30;101037.22;4998765;28;20054;-37
2023/10/03 07:09:11;;;;;;;9.70;4.10;;;;;;;22.99;56.37;101065.91;4992920;28;20058;-37
2023/10/03 07:11:38;;;;;;;7.18;3.65;;;;;;;22.99;56.23;101069.47;5011497;28;20193;-37
2023/10/03 07:14:05;;;;;;;8.02;3.83;;;;;;;22.98;55.89;101062.38;4997432;28;20345;-37
2023/10/03 07:16:38;;;;;;;6.60;3.30;;;;;;;22.99;56.94;101074.03;5000848;28;20599;-37
2023/10/03 07:19:05;;;;;;;;;;;;;;;22.97;56.54;101081.50;5006039;28;20061;-37
2023/10/03 07:21:34;;;;;;;8.65;3.75;;;;;;;23.01;56.39;101097.16;4998440;28;20025;-37
2023/10/03 07:24:01;;;;;;;8.02;3.70;;;;;;;23.00;56.06;101086.53;4997267;28;20323;-37
2023/10/03 07:26:28;;;;;;;8.80;3.95;;;;;;;22.99;56.43;101099.19;4996352;28;20050;-37
2023/10/03 07:29:00;;;;;;;11.63;3.90;;;;;;;22.97;56.11;101103.13;4999519;28;20046;-37
2023/10/03 07:31:29;;;;;;;11.40;4.07;;;;;;;22.96;56.60;101109.56;5001656;28;20053;-37
2023/10/03 07:33:56;;;;;;;7.40;3.42;;;;;;;22.93;56.59;101116.16;4993791;28;20560;-37
2023/10/03 07:36:23;;;;;;;9.35;3.78;;;;;;;22.93;56.43;101110.75;4994149;28;20054;-37
2023/10/03 07:38:50;;;;;;;7.00;3.60;;;;;;;22.92;56.63;101119.88;5002702;28;20382;-37
2023/10/03 07:41:18;;;;;;;6.28;3.22;;;;;;;22.92;56.35;101127.16;5003224;28;20046;-37
2023/10/03 07:43:48;;;;;;;6.30;2.88;;;;;;;22.93;56.59;101135.06;4996439;28;20057;-37
2023/10/03 07:46:22;;;;;;;8.55;3.28;;;;;;;22.89;56.74;101153.47;5000552;28;20048;-37
2023/10/03 07:48:52;;;;;;;8.10;3.92;;;;;;;22.90;56.78;101160.59;5002383;28;20045;-37
2023/10/03 07:51:31;;;;;;;7.45;3.55;;;;;;;22.90;56.67;101159.72;5005254;28;20485;-37
2023/10/03 07:53:58;;;;;;;7.35;3.05;;;;;;;22.90;56.75;101160.59;4998202;28;20148;-37
2023/10/03 07:56:30;;;;;;;5.13;2.85;;;;;;;22.90;56.72;101175.94;4998139;28;20422;-37
2023/10/03 07:59:01;;;;;;;6.10;3.08;;;;;;;22.88;56.75;101186.94;5003776;28;20567;-36
2023/10/03 08:01:32;;;;;;;7.80;3.58;;;;;;;22.88;56.75;101205.00;5001180;28;20583;-37
2023/10/03 08:04:14;;;;;;;5.57;3.00;;;;;;;22.87;56.45;101219.53;4995929;28;20050;-36
2023/10/03 08:06:42;;;;;;;8.27;3.17;;;;;;;22.86;56.92;101228.66;4996904;28;20058;-36
2023/10/03 08:09:09;;;;;;;5.47;2.92;;;;;;;22.84;56.27;101230.72;4997130;28;20050;-37
2023/10/03 08:11:36;;;;;;;7.97;3.53;;;;;;;22.82;56.82;101225.47;4993220;28;20446;-37
2023/10/03 08:14:17;;;;;;;7.88;3.10;;;;;;;22.82;56.31;101235.44;4995914;28;20570;-37
2023/10/03 08:16:46;;;;;;;5.95;3.13;;;;;;;22.81;56.72;101244.56;4994375;28;20405;-37
2023/10/03 08:19:21;;;;;;;5.75;2.75;;;;;;;22.80;56.90;101259.94;4993234;28;20069;-37
2023/10/03 08:21:48;;;;;;;6.57;3.15;;;;;;;22.81;56.31;101268.91;4994703;28;20108;-37
2023/10/03 08:24:19;;;;;;;6.47;2.70;;;;;;;22.80;56.82;101264.53;4994286;28;20042;-37
2023/10/03 08:26:46;;;;;;;5.85;2.63;;;;;;;22.82;56.65;101273.28;4993085;28;20058;-37
2023/10/03 08:29:23;;;;;;;7.70;3.38;;;;;;;22.80;56.39;101276.16;4993918;28;20138;-37
2023/10/03 08:31:58;;;;;;;5.90;3.20;;;;;;;22.81;56.49;101283.25;4993281;28;20057;-37
2023/10/03 08:34:30;;;;;;;8.05;2.60;;;;;;;22.81;56.63;101296.75;4997742;28;20046;-37
2023/10/03 08:37:02;;;;;;;5.25;2.35;;;;;;;22.81;56.59;101312.13;4999857;28;20050;-37
2023/10/03 08:39:32;;;;;;;7.47;2.80;;;;;;;22.81;56.64;101320.25;5003059;28;20484;-37
2023/10/03 08:42:15;;;;;;;5.57;2.90;;;;;;;22.80;56.54;101329.38;5006961;28;20291;-37
2023/10/03 08:44:52;;;;;;;4.45;2.58;;;;;;;22.80;56.54;101340.19;4999193;28;20438;-37
2023/10/03 08:47:30;;;;;;;6.57;2.80;;;;;;;22.80;56.43;101346.44;5001026;28;20050;-37
2023/10/03 08:50:29;;;;;;;5.30;2.58;;;;;;;22.79;56.30;101355.53;5000461;28;20136;-37
2023/10/03 08:52:56;;;;;;;6.90;2.70;;;;;;;22.81;56.34;101358.09;4992478;28;20085;-37
2023/10/03 08:55:26;;;;;;;5.00;2.60;;;;;;;22.79;56.84;101355.53;5000581;28;20042;-37
2023/10/03 08:57:53;;;;;;;6.60;2.70;;;;;;;22.80;56.18;101361.81;4993665;28;20057;-37
2023/10/03 09:00:25;;;;;;;5.30;2.50;;;;;;;22.80;56.33;101357.25;4998716;28;20050;-37
2023/10/03 09:03:09;;;;;;;4.47;2.67;;;;;;;22.79;56.62;101366.34;5001741;28;20398;-37
2023/10/03 09:05:40;;;;;;;7.68;2.67;;;;;;;22.80;56.91;101381.56;4998404;28;20100;-37
2023/10/03 09:08:12;;;;;;;5.63;2.50;;;;;;;22.80;56.67;101395.09;4992662;28;20176;-37
2023/10/03 09:10:55;;;;;;;5.57;2.40;;;;;;;22.79;56.29;101393.38;4993162;28;20441;-37
2023/10/03 09:13:23;;;;;;;4.65;2.38;;;;;;;22.80;56.72;101396.94;4995556;28;20540;-38
2023/10/03 09:16:08;;;;;;;9.05;2.65;;;;;;;22.79;56.30;101398.78;4995763;28;20050;-37
2023/10/03 09:18:41;;;;;;;4.20;2.20;;;;;;;22.79;56.29;101387.97;4993866;28;20053;-37
2023/10/03 09:21:15;;;;;;;4.10;2.00;;;;;;;22.81;56.70;101395.94;5007131;28;20058;-37
2023/10/03 09:24:01;;;;;;;4.55;2.15;;;;;;;22.80;56.29;101392.38;4998598;28;20053;-37
2023/10/03 09:27:07;;;;;;;4.63;2.30;;;;;;;22.79;56.22;101411.47;4997051;28;20061;-37
2023/10/03 09:29:34;;;;;;;4.57;1.90;;;;;;;22.80;56.42;101424.81;5000924;28;20056;-37
2023/10/03 09:32:12;;;;;;;3.42;2.30;;;;;;;22.80;56.61;101423.97;4998027;28;20069;-37
2023/10/03 09:34:44;;;;;;;5.18;1.85;;;;;;;22.81;56.61;101431.06;4999177;28;20062;-37
2023/10/03 09:37:11;;;;;;;3.88;2.00;;;;;;;22.82;56.54;101432.75;4997044;28;20100;-37
2023/10/03 09:39:48;;;;;;;5.30;1.80;;;;;;;22.83;56.12;101453.34;4996876;28;20384;-37
2023/10/03 09:42:18;;;;;;;3.45;2.20;;;;;;;22.84;56.26;101455.91;5000095;28;20050;-37
2023/10/03 09:44:51;;;;;;;4.55;2.10;;;;;;;22.84;56.25;101457.75;5000750;28;20393;-37
2023/10/03 09:47:19;;;;;;;6.07;2.05;;;;;;;22.85;56.37;101468.38;5001711;28;20132;-37
2023/10/03 09:49:47;;;;;;;3.95;2.03;;;;;;;22.86;55.83;101470.06;5001612;28;20034;-37
2023/10/03 09:52:27;;;;;;;3.58;1.95;;;;;;;22.84;56.40;101477.53;4998398;28;20108;-37
2023/10/03 09:54:59;;;;;;;4.80;1.70;;;;;;;22.84;56.13;101495.59;4998195;28;20473;-37
2023/10/03 09:57:29;;;;;;;3.22;2.08;;;;;;;22.82;56.25;101494.91;4998450;28;20054;-37
2023/10/03 09:59:57;;;;;;;5.78;2.42;;;;;;;22.81;56.33;101506.75;4999594;28;20038;-36
2023/10/03 10:02:30;;;;;;;4.20;1.65;;;;;;;22.80;55.96;101514.00;4998391;28;20502;-36
2023/10/03 10:05:00;;;;;;;;;;;;;;;22.76;56.16;101515.38;4999386;28;20484;-37
2023/10/03 10:07:43;;;;;;;4.05;2.08;;;;;;;22.78;55.98;101521.44;4998807;28;19925;-36
2023/10/03 10:10:12;;;;;;;4.03;2.03;;;;;;;22.76;56.07;101518.06;5002791;28;20058;-36
2023/10/03 10:13:13;;;;;;;3.38;2.00;;;;;;;22.73;55.93;101523.81;5000562;28;20108;-36
2023/10/03 10:16:11;;;;;;;3.20;1.60;;;;;;;22.73;56.27;101525.66;4998930;28;20054;-36
2023/10/03 10:18:44;;;;;;;3.40;1.65;;;;;;;22.72;56.10;101526.69;5002662;28;20054;-36
2023/10/03 10:21:31;;;;;;;2.60;1.63;;;;;;;22.70;56.47;101531.41;5002564;28;20073;-36
2023/10/03 10:24:11;;;;;;;3.25;1.88;;;;;;;22.69;56.52;101535.13;4996933;28;20381;-37
2023/10/03 10:26:38;;;;;;;2.25;1.35;;;;;;;22.67;56.59;101538.84;4995048;28;20139;-37
2023/10/03 10:29:05;;;;;;;2.60;1.77;;;;;;;22.68;56.35;101534.28;5001058;28;20074;-36
2023/10/03 10:31:38;;;;;;;3.65;1.77;;;;;;;22.66;56.17;101539.81;4999755;28;20054;-37
2023/10/03 10:34:40;;;;;;;3.43;1.90;;;;;;;22.66;56.30;101536.28;5002774;28;20046;-37
2023/10/03 10:37:18;;;;;;;5.43;1.80;;;;;;;22.67;56.47;101546.06;4996900;28;20136;-37
2023/10/03 10:39:55;;;;;;;2.70;1.40;;;;;;;22.66;56.49;101557.91;4999161;28;20052;-36
2023/10/03 10:42:25;;;;;;;3.38;1.55;;;;;;;22.67;56.17;101560.47;4996017;28;20185;-36
2023/10/03 10:45:13;;;;;;;3.13;1.80;;;;;;;22.65;56.71;101564.31;4997058;28;20058;-36
2023/10/03 10:47:51;;;;;;;3.95;2.08;;;;;;;22.65;56.21;101581.38;4998794;28;20056;-37
2023/10/03 10:50:18;;;;;;;4.25;1.77;;;;;;;22.65;56.41;101578.69;4994381;28;20507;-37
2023/10/03 10:53:05;;;;;;;4.50;1.80;;;;;;;22.64;56.44;101587.81;5000950;28;20446;-36
2023/10/03 10:55:33;;;;;;;4.05;1.73;;;;;;;22.66;56.26;101593.88;5000946;28;20085;-36
2023/10/03 10:58:03;;;;;;;3.40;1.52;;;;;;;22.65;56.22;101594.91;5001138;28;20144;-36
2023/10/03 11:00:33;;;;;;;2.92;1.40;;;;;;;22.66;56.55;101599.28;4998465;28;20046;-36
2023/10/03 11:03:02;;;;;;;4.38;1.70;;;;;;;22.65;56.43;101602.16;5000970;28;20042;-36
2023/10/03 11:05:45;;;;;;;4.43;1.60;;;;;;;22.63;56.73;101610.44;4999715;28;20484;-37
2023/10/03 11:08:12;;;;;;;2.33;1.20;;;;;;;22.64;56.58;101612.13;4999081;28;20430;-37
2023/10/03 11:10:53;;;;;;;2.40;1.20;;;;;;;22.63;56.73;101612.28;4998895;28;20041;-36
2023/10/03 11:13:21;;;;;;;3.42;1.35;;;;;;;22.64;56.43;101619.41;5000223;28;20374;-37
2023/10/03 11:15:54;;;;;;;3.03;1.40;;;;;;;22.63;56.51;101626.66;5001950;28;20563;-36
2023/10/03 11:18:29;;;;;;;4.63;1.60;;;;;;;22.63;56.72;101634.75;4996709;28;20134;-36
2023/10/03 11:21:02;;;;;;;4.45;1.50;;;;;;;22.65;56.17;101640.00;4993425;28;20878;-36
2023/10/03 11:23:30;;;;;;;2.78;1.50;;;;;;;22.63;56.67;101650.09;4994972;28;20061;-36
2023/10/03 11:25:58;;;;;;;3.33;1.25;;;;;;;22.61;56.38;101650.28;4993570;28;20144;-37
2023/10/03 11:28:28;;;;;;;3.53;1.58;;;;;;;22.61;56.55;101655.69;4995972;28;20311;-37
2023/10/03 11:31:03;;;;;;;3.50;1.40;;;;;;;22.60;56.30;101667.50;4997597;28;20116;-36
2023/10/03 11:33:41;;;;;;;3.65;1.60;;;;;;;22.60;56.47;101669.38;4997741;28;20100;-36
2023/10/03 11:36:08;;;;;;;2.53;1.58;;;;;;;22.60;56.09;101681.03;5000426;28;20058;-36
2023/10/03 11:38:49;;;;;;;4.28;1.25;;;;;;;22.59;56.72;101694.69;4998937;28;20053;-37
2023/10/03 11:41:32;;;;;;;2.15;1.20;;;;;;;22.58;56.55;101701.09;5001328;28;20053;-37
2023/10/03 11:44:03;;;;;;;4.13;1.50;;;;;;;22.58;56.29;101710.03;4994896;28;20057;-37